Time;durP1;ratioP1;P1;durP2;ratioP2;P2;SDS_P1;SDS_P2;PMS_P1;PMS_P2;Temp;Humidity;BMP_temperature;BMP_pressure;BME280_temperature;BME280_humidity;BME280_pressure;Samples;Min_cycle;Max_cycle;Signal;HPM_P1;HPM_P2
2022/09/12 00:00:47;;;;;;;28.70;24.42;;;;;;;13.92;nan;101493.91;5034638;28;20048;-66
2022/09/12 00:03:13;;;;;;;28.75;25.85;;;;;;;14.23;nan;101541.31;5052517;28;20037;-66
2022/09/12 00:05:43;;;;;;;28.25;25.30;;;;;;;13.92;nan;101485.97;5050919;28;20495;-66
2022/09/12 00:08:08;;;;;;;30.58;26.63;;;;;;;13.94;nan;101502.66;5035824;28;20061;-68
2022/09/12 00:10:44;;;;;;;30.73;27.17;;;;;;;14.05;nan;101508.41;5048190;28;20042;-63
2022/09/12 00:13:10;;;;;;;28.98;25.85;;;;;;;14.06;nan;101524.25;5055824;28;20048;-65
2022/09/12 00:15:40;;;;;;;32.92;27.17;;;;;;;13.82;nan;101487.19;5051247;28;20479;-65
2022/09/12 00:18:07;;;;;;;28.42;25.48;;;;;;;14.15;nan;101541.59;5052187;28;20029;-65
2022/09/12 00:20:33;;;;;;;29.42;24.63;;;;;;;14.09;nan;101518.00;5050681;28;20037;-66
2022/09/12 00:22:58;;;;;;;32.53;26.75;;;;;;;13.90;nan;101493.09;5046670;28;20511;-68
2022/09/12 00:25:23;;;;;;;30.02;26.85;;;;;;;14.12;nan;101536.41;5040970;28;20060;-67
2022/09/12 00:27:49;;;;;;;31.30;26.42;;;;;;;14.12;nan;101533.75;5039705;28;20443;-64
2022/09/12 00:30:14;;;;;;;28.77;25.60;;;;;;;13.82;nan;101480.13;5048013;28;20098;-67
2022/09/12 00:32:39;;;;;;;30.45;26.58;;;;;;;13.77;nan;101462.69;5034530;28;20079;-65
2022/09/12 00:35:05;;;;;;;31.35;27.80;;;;;;;13.74;nan;101455.75;5045679;28;20038;-64
2022/09/12 00:37:30;;;;;;;30.25;26.90;;;;;;;14.14;nan;101523.09;5040459;28;20416;-68
2022/09/12 00:39:56;;;;;;;29.55;26.30;;;;;;;13.81;nan;101472.22;5048477;28;20033;-64
2022/09/12 00:42:21;;;;;;;31.10;27.33;;;;;;;14.12;nan;101525.81;5034875;28;20099;-66
2022/09/12 00:44:50;;;;;;;30.02;26.25;;;;;;;13.73;nan;101461.94;5047878;28;20041;-67
2022/09/12 00:47:20;;;;;;;30.70;27.60;;;;;;;13.90;nan;101490.44;5039047;28;20376;-65
2022/09/12 00:49:53;;;;;;;30.13;26.90;;;;;;;14.12;nan;101511.72;5039328;28;20037;-67
2022/09/12 00:52:28;;;;;;;30.67;27.33;;;;;;;14.12;nan;101520.53;5046843;28;20051;-65
2022/09/12 00:55:03;;;;;;;31.45;26.88;;;;;;;13.88;nan;101471.97;5050431;28;20557;-66
2022/09/12 00:57:33;;;;;;;31.27;27.20;;;;;;;14.12;nan;101517.00;5051626;28;20083;-65
2022/09/12 01:00:08;;;;;;;29.77;26.42;;;;;;;14.09;nan;101508.28;5037634;28;20032;-65
2022/09/12 01:02:34;;;;;;;30.58;26.30;;;;;;;13.73;nan;101454.00;5047874;28;20029;-65
2022/09/12 01:04:59;;;;;;;29.60;26.40;;;;;;;14.10;nan;101512.63;5036010;28;20063;-67
2022/09/12 01:07:25;;;;;;;30.17;25.77;;;;;;;13.75;nan;101441.56;5042291;28;20064;-66
2022/09/12 01:09:51;;;;;;;32.20;24.70;;;;;;;13.87;nan;101464.94;5026140;28;20033;-66
2022/09/12 01:12:16;;;;;;;30.13;24.88;;;;;;;13.90;nan;101463.97;5035070;28;20124;-64
2022/09/12 01:14:42;;;;;;;28.55;25.42;;;;;;;13.88;nan;101465.81;5047877;28;20037;-65
2022/09/12 01:17:11;;;;;;;28.00;25.10;;;;;;;14.12;nan;101501.13;5036788;28;20041;-67
2022/09/12 01:20:03;;;;;;;31.55;25.85;;;;;;;14.10;nan;101506.47;5046711;28;20393;-64
2022/09/12 01:22:28;;;;;;;33.80;26.52;;;;;;;14.10;nan;101498.50;5030286;28;20029;-64
2022/09/12 01:25:14;;;;;;;30.02;26.70;;;;;;;13.80;nan;101449.34;5031865;28;20112;-64
2022/09/12 01:27:47;;;;;;;29.63;26.45;;;;;;;14.09;nan;101513.56;5038075;28;20488;-66
2022/09/12 01:30:38;;;;;;;30.52;26.35;;;;;;;14.07;nan;101507.44;5049323;28;20056;-66
2022/09/12 01:33:24;;;;;;;29.05;25.52;;;;;;;14.04;nan;101502.25;5037435;28;20071;-64
2022/09/12 01:36:15;;;;;;;33.70;27.25;;;;;;;13.77;nan;101452.97;5057480;28;20131;-65
2022/09/12 01:38:48;;;;;;;29.73;26.02;;;;;;;13.96;nan;101492.88;5050000;28;20028;-68
2022/09/12 01:41:35;;;;;;;28.52;25.13;;;;;;;13.86;nan;101487.06;5058765;28;20034;-63
2022/09/12 01:44:09;;;;;;;29.75;26.23;;;;;;;13.79;nan;101471.44;5046437;28;20476;-64
2022/09/12 01:46:48;;;;;;;31.55;25.42;;;;;;;13.50;nan;101414.28;5038469;28;20033;-65
2022/09/12 01:49:26;;;;;;;32.47;25.77;;;;;;;13.44;nan;101414.47;5047248;28;20472;-64
2022/09/12 01:52:01;;;;;;;32.67;26.23;;;;;;;13.79;nan;101472.31;5045918;28;20480;-64
2022/09/12 01:54:38;;;;;;;32.10;26.63;;;;;;;13.70;nan;101467.34;5038005;28;20044;-66
2022/09/12 01:57:18;;;;;;;29.90;26.70;;;;;;;13.50;nan;101424.84;5048704;28;20055;-65
2022/09/12 01:59:47;;;;;;;31.33;25.70;;;;;;;13.43;nan;101410.09;5045103;28;20029;-65
2022/09/12 02:02:51;;;;;;;32.70;26.55;;;;;;;13.73;nan;101463.72;5054155;28;20046;-65
2022/09/12 02:05:26;;;;;;;33.97;24.95;;;;;;;13.46;nan;101421.44;5000581;28;20064;-66
2022/09/12 02:08:19;;;;;;;31.77;26.70;;;;;;;13.69;nan;101460.31;5042828;28;20420;-65
2022/09/12 02:10:58;;;;;;;30.67;25.80;;;;;;;13.65;nan;101463.13;5031974;28;20091;-65
2022/09/12 02:13:48;;;;;;;30.77;26.08;;;;;;;13.66;nan;101465.69;5038665;28;20076;-65
2022/09/12 02:16:20;;;;;;;36.45;26.33;;;;;;;13.26;nan;101381.63;5034303;28;20396;-67
2022/09/12 02:18:51;;;;;;;32.05;26.25;;;;;;;13.66;nan;101454.28;5044090;28;20037;-66
2022/09/12 02:21:19;;;;;;;33.00;25.92;;;;;;;13.31;nan;101386.75;5042004;28;20033;-63
2022/09/12 02:23:47;;;;;;;29.13;25.15;;;;;;;13.21;nan;101375.63;5042558;28;20061;-64
2022/09/12 02:26:23;;;;;;;30.90;25.63;;;;;;;13.35;nan;101393.66;5048515;28;20480;-66
2022/09/12 02:28:49;;;;;;;32.30;25.80;;;;;;;13.68;nan;101453.31;5052904;28;20385;-63
2022/09/12 02:31:17;;;;;;;34.08;27.17;;;;;;;13.70;nan;101447.94;5046287;28;20033;-67
2022/09/12 02:34:08;;;;;;;34.20;25.98;;;;;;;13.71;nan;101445.25;5045463;28;20094;-63
2022/09/12 02:36:36;;;;;;;;;;;;;;;13.76;nan;101439.78;5035778;28;20484;-66
2022/09/12 02:39:02;;;;;;;33.42;26.45;;;;;;;13.36;nan;101366.28;5047990;28;20422;-69
2022/09/12 02:41:27;;;;;;;34.10;27.00;;;;;;;13.40;nan;101362.59;5042816;28;20064;-65
2022/09/12 02:43:53;;;;;;;37.35;27.50;;;;;;;13.81;nan;101416.66;5040744;28;20072;-67
2022/09/12 02:46:25;;;;;;;31.38;25.45;;;;;;;13.44;nan;101369.53;5050392;28;20044;-64
2022/09/12 02:48:51;;;;;;;33.28;25.67;;;;;;;13.88;nan;101432.28;5037792;28;20025;-63
2022/09/12 02:51:16;;;;;;;29.60;24.17;;;;;;;13.53;nan;101367.41;5053401;28;20052;-67
2022/09/12 02:53:42;;;;;;;30.85;25.17;;;;;;;13.46;nan;101357.97;5052189;28;20037;-67
2022/09/12 02:56:12;;;;;;;31.38;25.35;;;;;;;13.85;nan;101419.16;5048104;28;20488;-64
2022/09/12 02:58:37;;;;;;;31.17;26.13;;;;;;;13.88;nan;101426.13;5051183;28;20476;-65
2022/09/12 03:01:26;;;;;;;29.98;25.42;;;;;;;14.00;nan;101444.19;5047071;28;20116;-67
2022/09/12 03:04:03;;;;;;;33.38;24.90;;;;;;;14.01;nan;101430.91;5038430;28;20051;-65
2022/09/12 03:06:53;;;;;;;31.48;25.33;;;;;;;14.03;nan;101422.91;5036454;28;20030;-68
2022/09/12 03:09:32;;;;;;;29.50;24.48;;;;;;;14.07;nan;101422.72;5041895;28;20507;-67
2022/09/12 03:12:09;;;;;;;30.95;26.15;;;;;;;14.12;nan;101421.69;5039503;28;20049;-65
2022/09/12 03:14:53;;;;;;;29.42;25.10;;;;;;;14.15;nan;101417.16;5049919;28;20037;-67
2022/09/12 03:17:40;;;;;;;30.85;25.02;;;;;;;14.18;nan;101413.53;5041374;28;20102;-65
2022/09/12 03:20:15;;;;;;;33.10;25.08;;;;;;;13.76;nan;101329.53;5038488;28;20038;-66
2022/09/12 03:22:53;;;;;;;29.63;24.23;;;;;;;14.20;nan;101393.16;5048643;28;20025;-67
2022/09/12 03:25:40;;;;;;;32.35;24.92;;;;;;;13.94;nan;101344.72;5039931;28;20021;-64
2022/09/12 03:28:08;;;;;;;27.95;24.80;;;;;;;14.35;nan;101417.28;5053032;28;20059;-66
2022/09/12 03:30:42;;;;;;;35.20;24.42;;;;;;;13.99;nan;101337.47;5047766;28;20033;-68
2022/09/12 03:33:12;;;;;;;29.52;24.92;;;;;;;14.02;nan;101340.00;5039643;28;20108;-66
2022/09/12 03:35:38;;;;;;;27.55;24.55;;;;;;;13.95;nan;101338.47;5057407;28;20042;-68
2022/09/12 03:38:04;;;;;;;27.90;23.48;;;;;;;13.94;nan;101331.50;5046684;28;20033;-65
2022/09/12 03:40:29;;;;;;;27.75;23.73;;;;;;;14.23;nan;101400.97;5035886;28;20061;-67
2022/09/12 03:42:54;;;;;;;26.65;22.80;;;;;;;13.94;nan;101330.63;5063094;28;20072;-66
2022/09/12 03:45:20;;;;;;;27.45;24.50;;;;;;;14.06;nan;101369.84;5040997;28;20033;-65
2022/09/12 03:47:46;;;;;;;31.50;25.25;;;;;;;14.20;nan;101390.50;5051352;28;20036;-65
2022/09/12 03:50:11;;;;;;;28.70;24.13;;;;;;;13.81;nan;101332.84;5052514;28;20571;-66
2022/09/12 03:52:37;;;;;;;29.60;25.52;;;;;;;13.80;nan;101332.94;5035748;28;20120;-64
2022/09/12 03:55:03;;;;;;;28.35;24.05;;;;;;;14.19;nan;101391.41;5046546;28;20039;-66
2022/09/12 03:57:28;;;;;;;28.35;23.30;;;;;;;13.93;nan;101358.00;5040546;28;20075;-65
2022/09/12 03:59:53;;;;;;;30.77;24.85;;;;;;;14.14;nan;101399.53;5039588;28;20181;-66
2022/09/12 04:02:19;;;;;;;28.65;24.67;;;;;;;14.12;nan;101403.16;5048726;28;20047;-65
2022/09/12 04:04:47;;;;;;;31.90;25.60;;;;;;;14.05;nan;101390.16;5035739;28;20032;-65
2022/09/12 04:07:13;;;;;;;32.75;25.45;;;;;;;13.84;nan;101353.91;5043767;28;20045;-66
2022/09/12 04:09:39;;;;;;;31.58;25.70;;;;;;;14.04;nan;101395.50;5043030;28;20049;-64
2022/09/12 04:12:05;;;;;;;32.70;25.05;;;;;;;14.02;nan;101392.06;5030010;28;20473;-66
2022/09/12 04:14:30;;;;;;;30.38;25.48;;;;;;;13.77;nan;101365.66;5033928;28;20049;-68
2022/09/12 04:16:55;;;;;;;32.05;26.42;;;;;;;13.64;nan;101332.63;5047253;28;20499;-68
2022/09/12 04:19:21;;;;;;;31.90;25.73;;;;;;;13.90;nan;101398.69;5040623;28;20040;-68
2022/09/12 04:21:46;;;;;;;34.85;25.88;;;;;;;13.35;nan;101307.25;5039740;28;20048;-64
2022/09/12 04:24:11;;;;;;;31.48;25.52;;;;;;;13.52;nan;101333.06;5047399;28;20102;-66
2022/09/12 04:26:37;;;;;;;31.20;26.17;;;;;;;13.83;nan;101396.31;5035350;28;20068;-65
2022/09/12 04:29:02;;;;;;;29.95;25.40;;;;;;;13.62;nan;101360.94;5046232;28;20036;-65
2022/09/12 04:31:27;;;;;;;35.00;26.55;;;;;;;13.37;nan;101334.50;5041378;28;20032;-64
2022/09/12 04:33:55;;;;;;;32.58;26.50;;;;;;;13.73;nan;101394.91;5038912;28;20065;-64
2022/09/12 04:36:21;;;;;;;33.50;26.80;;;;;;;13.45;nan;101350.09;5048360;28;20503;-66
2022/09/12 04:38:47;;;;;;;33.00;26.65;;;;;;;13.54;nan;101374.41;5035783;28;20472;-66
2022/09/12 04:41:15;;;;;;;37.97;26.83;;;;;;;13.51;nan;101369.25;5044382;28;20064;-67
2022/09/12 04:43:41;;;;;;;34.40;28.50;;;;;;;13.41;nan;101367.00;5042853;28;20094;-65
2022/09/12 04:46:08;;;;;;;36.03;26.75;;;;;;;13.59;nan;101397.22;5037155;28;20041;-64
2022/09/12 04:48:33;;;;;;;40.10;29.02;;;;;;;13.57;nan;101405.22;5047163;28;20476;-64
2022/09/12 04:51:14;;;;;;;35.05;27.77;;;;;;;13.15;nan;101330.91;5037090;28;20044;-67
2022/09/12 04:53:40;;;;;;;35.65;28.25;;;;;;;13.10;nan;101326.69;5040685;28;20069;-65
2022/09/12 04:56:08;;;;;;;38.28;29.45;;;;;;;13.15;nan;101338.84;5046295;28;20048;-65
2022/09/12 04:58:33;;;;;;;37.72;30.35;;;;;;;13.25;nan;101361.38;5035216;28;20065;-65
2022/09/12 05:01:13;;;;;;;39.33;30.70;;;;;;;13.42;nan;101401.34;5050311;28;20519;-69
2022/09/12 05:03:42;;;;;;;36.13;28.90;;;;;;;13.38;nan;101398.81;5050325;28;20364;-64
2022/09/12 05:06:09;;;;;;;36.83;29.25;;;;;;;13.35;nan;101396.28;5051938;28;20037;-67
2022/09/12 05:08:35;;;;;;;39.65;30.23;;;;;;;13.02;nan;101337.47;5046574;28;20049;-67
2022/09/12 05:11:05;;;;;;;42.05;33.03;;;;;;;13.29;nan;101405.31;5036556;28;20392;-66
2022/09/12 05:13:32;;;;;;;41.15;31.83;;;;;;;13.27;nan;101398.34;5014022;28;20492;-65
2022/09/12 05:15:58;;;;;;;43.20;32.65;;;;;;;13.27;nan;101393.06;5044944;28;20480;-67
2022/09/12 05:18:25;;;;;;;42.65;31.80;;;;;;;13.28;nan;101398.28;5036622;28;20061;-63
2022/09/12 05:20:51;;;;;;;45.05;32.08;;;;;;;12.92;nan;101333.44;5050856;28;20439;-64
2022/09/12 05:23:16;;;;;;;46.08;33.78;;;;;;;13.25;nan;101384.31;5043068;28;20115;-65
2022/09/12 05:25:51;;;;;;;43.55;32.72;;;;;;;12.91;nan;101322.00;5044221;28;20060;-64
2022/09/12 05:28:18;;;;;;;50.70;35.85;;;;;;;13.04;nan;101343.59;5051222;28;20081;-66
2022/09/12 05:30:44;;;;;;;45.15;34.00;;;;;;;13.23;nan;101372.91;5038447;28;20021;-65
2022/09/12 05:33:10;;;;;;;44.13;32.00;;;;;;;13.20;nan;101359.81;5053849;28;20065;-66
2022/09/12 05:35:37;;;;;;;48.40;34.92;;;;;;;12.94;nan;101321.91;5063641;28;20036;-64
2022/09/12 05:38:03;;;;;;;45.22;33.92;;;;;;;13.19;nan;101355.47;5040878;28;20037;-67
2022/09/12 05:40:28;;;;;;;45.03;34.72;;;;;;;13.17;nan;101357.25;5035923;28;20535;-64
2022/09/12 05:42:53;;;;;;;49.80;35.55;;;;;;;13.19;nan;101358.09;5065017;28;20033;-65
2022/09/12 05:45:19;;;;;;;49.05;35.72;;;;;;;13.22;nan;101358.84;5041650;28;20029;-66
2022/09/12 05:47:48;;;;;;;46.47;33.63;;;;;;;12.87;nan;101308.97;5042040;28;20034;-65
2022/09/12 05:50:13;;;;;;;53.75;38.05;;;;;;;13.19;nan;101363.38;5049784;28;20383;-65
2022/09/12 05:52:38;;;;;;;49.00;35.60;;;;;;;13.29;nan;101378.88;5048982;28;20029;-66
2022/09/12 05:55:04;;;;;;;49.78;36.15;;;;;;;13.32;nan;101380.53;5033612;28;20405;-66
2022/09/12 05:57:30;;;;;;;48.00;34.53;;;;;;;13.05;nan;101329.44;5034607;28;20026;-64
2022/09/12 05:59:55;;;;;;;49.35;35.75;;;;;;;13.33;nan;101380.50;5047668;28;20365;-64
2022/09/12 06:02:20;;;;;;;48.30;34.20;;;;;;;13.01;nan;101321.69;5037785;28;20396;-62
2022/09/12 06:04:45;;;;;;;50.60;35.25;;;;;;;13.38;nan;101388.25;5051104;28;20033;-62
2022/09/12 06:07:11;;;;;;;47.72;33.20;;;;;;;13.38;nan;101386.47;5041622;28;20040;-63
2022/09/12 06:09:36;;;;;;;49.13;34.75;;;;;;;13.38;nan;101380.31;5049714;28;20052;-61
2022/09/12 06:12:02;;;;;;;50.42;35.95;;;;;;;13.44;nan;101380.97;5039217;28;20160;-64
2022/09/12 06:14:28;;;;;;;50.58;36.40;;;;;;;13.52;nan;101389.50;5049553;28;20120;-65
2022/09/12 06:16:53;;;;;;;51.67;36.40;;;;;;;13.31;nan;101323.31;5038805;28;20036;-64
2022/09/12 06:19:20;;;;;;;46.85;35.10;;;;;;;13.40;nan;101321.16;5046273;28;20025;-63
2022/09/12 06:21:48;;;;;;;45.78;34.22;;;;;;;13.81;nan;101369.03;5046104;28;20065;-63
2022/09/12 06:24:13;;;;;;;44.08;34.88;;;;;;;13.89;nan;101362.53;5038654;28;20030;-63
2022/09/12 06:26:38;;;;;;;51.88;36.22;;;;;;;13.97;nan;101371.06;5050655;28;20048;-61
2022/09/12 06:29:04;;;;;;;51.03;36.15;;;;;;;14.06;nan;101365.44;5033107;28;20029;-63
2022/09/12 06:31:32;;;;;;;49.92;34.92;;;;;;;14.15;nan;101360.69;5043105;28;20076;-62
2022/09/12 06:34:00;;;;;;;45.88;33.53;;;;;;;14.24;nan;101363.00;5040609;28;20026;-63
2022/09/12 06:36:28;;;;;;;43.92;34.03;;;;;;;14.20;nan;101334.91;5048966;28;20033;-62
2022/09/12 06:39:05;;;;;;;42.55;32.35;;;;;;;14.41;nan;101345.53;5037088;28;20460;-61
2022/09/12 06:41:31;;;;;;;44.63;32.05;;;;;;;14.51;nan;101344.22;5042936;28;20026;-62
2022/09/12 06:43:57;;;;;;;43.75;32.80;;;;;;;14.72;nan;101363.69;5045893;28;20541;-63
2022/09/12 06:46:23;;;;;;;36.25;30.77;;;;;;;14.45;nan;101296.81;5037300;28;20120;-63
2022/09/12 06:48:49;;;;;;;37.28;30.88;;;;;;;14.99;nan;101361.69;5052682;28;20068;-63
2022/09/12 06:51:17;;;;;;;37.70;30.67;;;;;;;15.15;nan;101360.09;5048347;28;20072;-63
2022/09/12 06:53:43;;;;;;;38.17;29.45;;;;;;;15.03;nan;101318.22;5042507;28;20061;-65
2022/09/12 06:56:14;;;;;;;37.65;29.00;;;;;;;15.56;nan;101372.44;5045813;28;20082;-63
2022/09/12 06:58:40;;;;;;;39.25;27.85;;;;;;;15.44;nan;101354.38;5051278;28;20049;-63
2022/09/12 07:01:14;;;;;;;29.05;26.00;;;;;;;15.24;nan;101261.56;5046394;28;20018;-63
2022/09/12 07:03:40;;;;;;;29.15;24.23;;;;;;;15.77;nan;101331.69;5043237;28;20033;-63
2022/09/12 07:06:10;;;;;;;30.08;24.60;;;;;;;16.00;nan;101370.44;5037913;28;20052;-63
2022/09/12 07:08:36;;;;;;;27.98;24.45;;;;;;;15.70;nan;101300.19;5047518;28;20094;-62
2022/09/12 07:11:35;;;;;;;27.95;23.88;;;;;;;16.13;nan;101363.63;5037003;28;20040;-64
2022/09/12 07:14:02;;;;;;;28.80;24.08;;;;;;;16.22;nan;101381.78;5034854;28;20048;-63
2022/09/12 07:16:28;;;;;;;27.73;24.73;;;;;;;16.31;nan;101370.72;5050956;28;20067;-62
2022/09/12 07:18:56;;;;;;;26.27;22.65;;;;;;;16.33;nan;101363.53;5039460;28;20504;-63
2022/09/12 07:21:21;;;;;;;28.38;23.65;;;;;;;16.57;nan;101373.97;5043457;28;20038;-63
2022/09/12 07:23:47;;;;;;;29.52;24.40;;;;;;;16.33;nan;101297.13;5042757;28;20490;-61
2022/09/12 07:26:14;;;;;;;25.92;21.67;;;;;;;16.83;nan;101353.13;5036427;28;20499;-63
2022/09/12 07:28:39;;;;;;;28.73;23.25;;;;;;;16.91;nan;101330.59;5046944;28;20090;-64
2022/09/12 07:31:09;;;;;;;26.05;22.02;;;;;;;17.44;nan;101382.78;5036798;28;20029;-64
2022/09/12 07:33:35;;;;;;;25.17;21.40;;;;;;;17.68;nan;101369.16;5041487;28;20048;-63
2022/09/12 07:36:03;;;;;;;23.95;20.23;;;;;;;18.07;nan;101380.31;5044385;28;20060;-64
2022/09/12 07:38:28;;;;;;;23.55;19.00;;;;;;;18.14;nan;101328.41;5035097;28;20087;-64
2022/09/12 07:40:53;;;;;;;21.70;18.77;;;;;;;18.93;nan;101399.41;5046857;28;20033;-64
2022/09/12 07:43:19;;;;;;;22.83;18.67;;;;;;;19.52;nan;101395.91;5038142;28;20063;-64
2022/09/12 07:45:44;;;;;;;20.50;18.40;;;;;;;19.75;nan;101358.91;5039957;28;20029;-63
2022/09/12 07:48:09;;;;;;;20.55;17.73;;;;;;;20.56;nan;101411.63;5046444;28;20445;-64
2022/09/12 07:50:37;;;;;;;18.10;16.05;;;;;;;21.09;nan;101414.34;5035236;28;20048;-63
2022/09/12 07:53:04;;;;;;;18.45;16.42;;;;;;;21.07;nan;101384.09;5045472;28;20091;-61
2022/09/12 07:55:29;;;;;;;21.60;18.17;;;;;;;21.86;nan;101432.25;5030541;28;20025;-63
2022/09/12 07:57:54;;;;;;;18.85;16.85;;;;;;;22.08;nan;101428.94;5030367;28;20095;-65
2022/09/12 08:00:20;;;;;;;17.90;15.80;;;;;;;22.47;nan;101428.75;5031716;28;20535;-62
2022/09/12 08:02:50;;;;;;;17.38;14.90;;;;;;;22.79;nan;101448.78;5030681;28;20030;-63
2022/09/12 08:05:16;;;;;;;17.33;15.02;;;;;;;22.64;nan;101433.78;5030891;28;20481;-64
2022/09/12 08:07:41;;;;;;;16.45;14.80;;;;;;;22.96;nan;101437.63;5031151;28;20033;-64
2022/09/12 08:10:07;;;;;;;15.50;13.68;;;;;;;22.95;nan;101394.78;5031598;28;20389;-62
2022/09/12 08:12:33;;;;;;;15.85;13.77;;;;;;;23.46;nan;101412.34;5031072;28;20416;-63
2022/09/12 08:14:59;;;;;;;19.98;13.80;;;;;;;23.80;nan;101398.97;5030315;28;20044;-62
2022/09/12 08:17:25;;;;;;;15.85;13.35;;;;;;;24.33;nan;101438.63;5029957;28;20516;-64
2022/09/12 08:19:50;;;;;;;14.15;12.82;;;;;;;24.74;nan;101470.25;5031400;28;20112;-64
2022/09/12 08:22:17;;;;;;;13.43;11.90;;;;;;;24.91;nan;101466.19;5031133;28;20036;-63
2022/09/12 08:24:42;;;;;;;13.50;12.20;;;;;;;24.97;nan;101469.25;5031632;28;20033;-61
2022/09/12 08:27:08;;;;;;;13.68;11.90;;;;;;;25.17;nan;101465.75;5031436;28;20041;-63
2022/09/12 08:29:33;;;;;;;12.25;10.95;;;;;;;25.24;nan;101454.47;5031529;28;20052;-64
2022/09/12 08:31:58;;;;;;;11.45;10.27;;;;;;;25.24;nan;101422.13;5031179;28;20381;-63
2022/09/12 08:34:25;;;;;;;12.52;10.02;;;;;;;25.49;nan;101467.59;5031119;28;20037;-64
2022/09/12 08:36:53;;;;;;;11.13;10.07;;;;;;;25.52;nan;101441.25;5030282;28;20045;-63
2022/09/12 08:39:18;;;;;;;10.85;9.75;;;;;;;25.64;nan;101433.94;5031484;28;20033;-65
2022/09/12 08:41:45;;;;;;;9.05;8.13;;;;;;;25.53;nan;101429.50;5031209;28;20055;-64
2022/09/12 08:44:37;;;;;;;7.93;7.13;;;;;;;25.92;nan;101473.72;5029872;28;20107;-64
2022/09/12 08:47:30;;;;;;;7.38;6.30;;;;;;;26.40;nan;101490.22;5029800;28;20037;-64
2022/09/12 08:50:10;;;;;;;7.93;7.13;;;;;;;26.54;nan;101484.44;5031012;28;20029;-64
2022/09/12 08:52:45;;;;;;;6.97;6.28;;;;;;;26.47;nan;101488.69;5031393;28;20038;-62
2022/09/12 08:55:34;;;;;;;6.72;5.85;;;;;;;26.55;nan;101483.44;5035231;28;20064;-66
2022/09/12 08:58:04;;;;;;;6.30;5.60;;;;;;;26.44;nan;101478.16;5031921;28;20088;-62
2022/09/12 09:00:58;;;;;;;5.45;4.80;;;;;;;26.45;nan;101479.84;5034111;28;20082;-63
2022/09/12 09:03:36;;;;;;;5.97;5.35;;;;;;;26.82;nan;101493.66;5033974;28;20052;-65
2022/09/12 09:06:17;;;;;;;5.68;5.10;;;;;;;26.83;nan;101492.66;5034886;28;20041;-62
2022/09/12 09:09:33;;;;;;;6.43;4.95;;;;;;;27.11;nan;101478.34;5034877;28;20140;-63
2022/09/12 09:12:29;;;;;;;6.97;5.40;;;;;;;27.58;nan;101475.84;5025309;28;20052;-61
2022/09/12 09:15:11;;;;;;;6.68;5.40;;;;;;;27.59;nan;101475.66;5034645;28;20211;-62
2022/09/12 09:17:41;;;;;;;5.63;5.13;;;;;;;27.81;nan;101483.50;5034768;28;20029;-62
2022/09/12 09:20:21;;;;;;;7.00;5.47;;;;;;;27.80;nan;101480.91;5033353;28;20048;-62
2022/09/12 09:22:53;;;;;;;8.00;5.82;;;;;;;27.96;nan;101475.78;5033244;28;20053;-62
2022/09/12 09:25:36;;;;;;;5.43;4.90;;;;;;;28.09;nan;101475.47;5034593;28;20033;-63
2022/09/12 09:28:06;;;;;;;5.85;5.03;;;;;;;28.33;nan;101473.09;5033355;28;20373;-63
2022/09/12 09:30:34;;;;;;;6.40;5.68;;;;;;;28.35;nan;101427.78;5033489;28;20091;-64
2022/09/12 09:33:01;;;;;;;5.18;4.40;;;;;;;28.46;nan;101423.00;5034663;28;20048;-64
2022/09/12 09:36:05;;;;;;;4.68;3.70;;;;;;;28.81;nan;101470.19;5033175;28;20116;-64
2022/09/12 09:38:39;;;;;;;3.97;3.42;;;;;;;29.11;nan;101471.69;5010880;28;20112;-63
2022/09/12 09:41:13;;;;;;;5.07;3.85;;;;;;;29.18;nan;101465.50;5034236;28;20472;-63
2022/09/12 09:43:39;;;;;;;3.65;3.33;;;;;;;29.41;nan;101452.34;5034641;28;20076;-62
2022/09/12 09:46:04;;;;;;;3.38;3.08;;;;;;;28.98;nan;101445.81;5033130;28;20445;-65
2022/09/12 09:48:32;;;;;;;4.55;3.30;;;;;;;28.98;nan;101397.00;5032903;28;20080;-63
2022/09/12 09:50:59;;;;;;;3.92;3.40;;;;;;;29.50;nan;101438.72;5034071;28;20392;-62
2022/09/12 09:53:24;;;;;;;4.03;3.22;;;;;;;29.82;nan;101446.28;5034050;28;20396;-64
2022/09/12 09:55:50;;;;;;;4.67;3.37;;;;;;;29.82;nan;101451.69;5033935;28;20041;-64
2022/09/12 09:58:30;;;;;;;2.95;2.75;;;;;;;29.53;nan;101451.09;5016264;28;20698;-63
2022/09/12 10:01:03;;;;;;;4.15;3.50;;;;;;;28.80;nan;101430.53;5016534;28;20461;-62
2022/09/12 10:03:34;;;;;;;5.78;4.00;;;;;;;28.29;nan;101396.72;5033820;28;20092;-61
2022/09/12 10:06:24;;;;;;;5.28;4.10;;;;;;;27.97;nan;101436.00;5016300;28;20408;-62
2022/09/12 10:08:50;;;;;;;4.70;3.80;;;;;;;27.79;nan;101412.44;5032735;28;20049;-68
2022/09/12 10:11:15;;;;;;;4.70;3.58;;;;;;;27.75;nan;101429.09;5033691;28;20370;-65
2022/09/12 10:13:53;;;;;;;4.17;3.53;;;;;;;27.53;nan;101426.72;5033573;28;20142;-63
2022/09/12 10:16:21;;;;;;;4.00;3.60;;;;;;;26.78;nan;101403.06;5032731;28;20319;-64
2022/09/12 10:18:48;;;;;;;4.55;3.58;;;;;;;26.34;nan;101425.97;5033697;28;20057;-62
2022/09/12 10:21:17;;;;;;;3.80;3.38;;;;;;;25.54;nan;101360.25;5044697;28;20041;-62
2022/09/12 10:23:44;;;;;;;3.65;3.35;;;;;;;25.24;nan;101363.72;5068269;28;20048;-64
2022/09/12 10:26:14;;;;;;;3.35;2.92;;;;;;;25.27;nan;101381.47;5068032;28;20052;-64
2022/09/12 10:28:42;;;;;;;;;;;;;;;25.32;nan;101393.56;5053297;28;20116;-62
2022/09/12 10:31:09;;;;;;;3.53;3.20;;;;;;;25.28;nan;101348.97;5052667;28;19968;-64
2022/09/12 10:33:42;;;;;;;3.20;2.90;;;;;;;25.99;nan;101391.28;5068191;28;20113;-62
2022/09/12 10:36:07;;;;;;;6.93;3.13;;;;;;;26.41;nan;101399.28;5052325;28;20396;-61
2022/09/12 10:38:33;;;;;;;2.90;2.58;;;;;;;27.05;nan;101414.06;5051115;28;20033;-63
2022/09/12 10:41:05;;;;;;;2.72;2.33;;;;;;;27.74;nan;101421.97;5051269;28;20037;-64
2022/09/12 10:43:36;;;;;;;3.72;3.03;;;;;;;27.91;nan;101358.97;5050971;28;20037;-62
2022/09/12 10:46:13;;;;;;;4.38;2.55;;;;;;;28.52;nan;101410.72;5052532;28;20075;-62
2022/09/12 10:48:39;;;;;;;3.58;2.80;;;;;;;28.24;nan;101403.59;5051167;28;20059;-64
2022/09/12 10:51:04;;;;;;;4.10;3.15;;;;;;;27.86;nan;101410.84;5051036;28;20033;-61
2022/09/12 10:53:43;;;;;;;3.45;2.70;;;;;;;28.21;nan;101412.88;5052298;28;20446;-65
2022/09/12 10:56:15;;;;;;;3.03;2.83;;;;;;;27.58;nan;101318.97;5051989;28;20500;-63
2022/09/12 10:58:47;;;;;;;3.20;2.88;;;;;;;28.25;nan;101410.75;5051192;28;20032;-63
2022/09/12 11:01:24;;;;;;;3.30;3.00;;;;;;;28.98;nan;101412.44;5051876;28;20408;-61
2022/09/12 11:04:14;;;;;;;3.28;2.95;;;;;;;29.65;nan;101420.00;5051774;28;20052;-64
2022/09/12 11:06:52;;;;;;;2.80;2.60;;;;;;;30.08;nan;101424.53;5067355;28;20496;-64
2022/09/12 11:09:32;;;;;;;4.85;3.38;;;;;;;30.52;nan;101422.56;5051712;28;20705;-64
2022/09/12 11:12:05;;;;;;;4.07;3.20;;;;;;;30.47;nan;101360.56;5067158;28;20041;-65
2022/09/12 11:14:43;;;;;;;3.97;3.38;;;;;;;30.87;nan;101418.75;5051438;28;20037;-62
2022/09/12 11:17:14;;;;;;;3.40;2.88;;;;;;;31.18;nan;101414.38;5050831;28;20037;-65
2022/09/12 11:19:52;;;;;;;3.63;2.92;;;;;;;31.36;nan;101351.66;5051863;28;20068;-65
2022/09/12 11:22:59;;;;;;;5.45;3.22;;;;;;;31.86;nan;101408.59;5050481;28;20040;-64
2022/09/12 11:25:44;;;;;;;3.30;2.78;;;;;;;32.47;nan;101394.25;5050144;28;20068;-63
2022/09/12 11:28:33;;;;;;;5.80;3.03;;;;;;;32.45;nan;101383.53;5050561;28;20091;-66
2022/09/12 11:31:10;;;;;;;4.40;2.95;;;;;;;32.73;nan;101370.28;5050152;28;20495;-65
2022/09/12 11:33:46;;;;;;;5.07;3.00;;;;;;;32.56;nan;101358.63;5051103;28;20040;-66
2022/09/12 11:36:44;;;;;;;4.82;2.97;;;;;;;33.45;nan;101403.50;5066687;28;20097;-63
2022/09/12 11:39:14;;;;;;;3.33;2.08;;;;;;;33.48;nan;101406.69;5052567;28;20033;-62
2022/09/12 11:41:42;;;;;;;2.30;2.00;;;;;;;33.52;nan;101410.75;5052987;28;20049;-66
2022/09/12 11:44:13;;;;;;;5.15;2.90;;;;;;;33.32;nan;101412.31;5051162;28;20037;-64
2022/09/12 11:46:41;;;;;;;2.50;2.00;;;;;;;33.27;nan;101360.19;5068360;28;20172;-65